Time;durP1;ratioP1;P1;durP2;ratioP2;P2;SDS_P1;SDS_P2;PMS_P1;PMS_P2;Temp;Humidity;BMP_temperature;BMP_pressure;BME280_temperature;BME280_humidity;BME280_pressure;Samples;Min_cycle;Max_cycle;Signal;HPM_P1;HPM_P2
2023/01/01 00:02:51;;;;;;;53.07;24.70;;;;;;;;;;6265920;28;20275;-81
2023/01/01 00:05:56;;;;;;;48.70;23.50;;;;;;;;;;6264161;28;20313;-81
2023/01/01 00:12:24;;;;;;;56.07;25.97;;;;;;;;;;6245498;28;20401;-82
2023/01/01 00:15:29;;;;;;;58.07;27.20;;;;;;;;;;6265893;28;20266;-80
2023/01/01 00:18:36;;;;;;;61.00;28.90;;;;;;;;;;6266442;28;20268;-81
2023/01/01 00:21:41;;;;;;;67.90;29.87;;;;;;;;;;6272554;28;20337;-82
2023/01/01 00:24:47;;;;;;;67.03;30.90;;;;;;;;;;6280571;28;20231;-80
2023/01/01 00:27:52;;;;;;;68.90;30.70;;;;;;;;;;6281379;28;20298;-81
2023/01/01 00:30:57;;;;;;;67.27;30.40;;;;;;;;;;6281378;28;20217;-81
2023/01/01 00:34:04;;;;;;;59.53;28.90;;;;;;;;;;6279425;28;20229;-81
2023/01/01 00:37:09;;;;;;;60.53;29.43;;;;;;;;;;6266902;28;20276;-81
2023/01/01 00:40:14;;;;;;;68.27;29.20;;;;;;;;;;6266175;28;20268;-81
2023/01/01 00:43:19;;;;;;;56.63;25.90;;;;;;;;;;6267043;28;20276;-81
2023/01/01 00:46:25;;;;;;;54.63;23.63;;;;;;;;;;6266462;28;20267;-81
2023/01/01 00:49:32;;;;;;;52.30;23.87;;;;;;;;;;6265127;28;20269;-80
2023/01/01 00:52:37;;;;;;;50.50;23.03;;;;;;;;;;6265640;28;20310;-81
2023/01/01 00:55:44;;;;;;;54.73;23.00;;;;;;;;;;6265878;28;20263;-81
2023/01/01 00:58:49;;;;;;;49.90;21.60;;;;;;;;;;6265907;28;20277;-81
2023/01/01 01:02:05;;;;;;;44.77;21.47;;;;;;;;;;6265333;28;20275;-80
2023/01/01 01:05:13;;;;;;;49.50;20.63;;;;;;;;;;6264180;28;20303;-80
2023/01/01 01:08:18;;;;;;;46.00;21.40;;;;;;;;;;6264299;28;20447;-80
2023/01/01 01:11:26;;;;;;;43.67;18.60;;;;;;;;;;6267167;28;20441;-80
2023/01/01 01:14:32;;;;;;;43.03;17.17;;;;;;;;;;6288556;28;20273;-80
2023/01/01 01:17:37;;;;;;;38.33;15.83;;;;;;;;;;6270062;28;20274;-81
2023/01/01 01:20:51;;;;;;;32.77;16.80;;;;;;;;;;6287827;28;20270;-81
2023/01/01 01:23:58;;;;;;;39.57;17.17;;;;;;;;;;6287716;28;20559;-80
2023/01/01 01:27:03;;;;;;;33.17;16.10;;;;;;;;;;6287500;28;20276;-81
2023/01/01 01:30:10;;;;;;;30.37;15.40;;;;;;;;;;6286901;28;20270;-81
2023/01/01 01:33:17;;;;;;;33.20;14.77;;;;;;;;;;6287373;28;20375;-81
2023/01/01 01:36:23;;;;;;;27.57;14.27;;;;;;;;;;6287641;28;20263;-81
2023/01/01 01:39:28;;;;;;;30.23;12.70;;;;;;;;;;6287569;28;20274;-81
2023/01/01 01:42:33;;;;;;;23.47;11.23;;;;;;;;;;6287374;28;20275;-81
2023/01/01 01:45:38;;;;;;;26.67;11.57;;;;;;;;;;6287395;28;20270;-81
2023/01/01 01:48:46;;;;;;;24.67;10.13;;;;;;;;;;6286757;28;20269;-81
2023/01/01 01:51:52;;;;;;;22.00;10.87;;;;;;;;;;6286858;28;20273;-82
2023/01/01 01:54:59;;;;;;;24.47;10.73;;;;;;;;;;6286933;28;20274;-82
2023/01/01 01:58:05;;;;;;;20.53;9.77;;;;;;;;;;6286850;28;20270;-80
2023/01/01 02:01:11;;;;;;;25.30;10.37;;;;;;;;;;6285243;28;20299;-80
2023/01/01 02:04:18;;;;;;;28.67;11.00;;;;;;;;;;6285995;28;20298;-80
2023/01/01 02:07:25;;;;;;;30.40;11.50;;;;;;;;;;6285947;28;20267;-80
2023/01/01 02:10:30;;;;;;;25.10;10.60;;;;;;;;;;6286176;28;20282;-81
2023/01/01 02:13:35;;;;;;;26.43;11.60;;;;;;;;;;6286161;28;20456;-81
2023/01/01 02:16:45;;;;;;;25.70;11.43;;;;;;;;;;6287019;28;20280;-81
2023/01/01 02:20:04;;;;;;;25.20;11.20;;;;;;;;;;6287049;28;20271;-81
2023/01/01 02:23:32;;;;;;;29.40;11.57;;;;;;;;;;6286561;28;20267;-81
2023/01/01 02:26:54;;;;;;;19.67;8.53;;;;;;;;;;6285762;28;20274;-81
2023/01/01 02:30:04;;;;;;;22.20;8.60;;;;;;;;;;6286072;28;20266;-81
2023/01/01 02:33:15;;;;;;;16.37;7.37;;;;;;;;;;6285956;28;20289;-81
2023/01/01 02:36:20;;;;;;;17.37;8.40;;;;;;;;;;6286270;28;20465;-81
2023/01/01 02:39:28;;;;;;;12.83;7.03;;;;;;;;;;6286124;28;20268;-80
2023/01/01 02:42:34;;;;;;;21.07;6.77;;;;;;;;;;6285924;28;20274;-81
2023/01/01 02:45:41;;;;;;;12.70;7.10;;;;;;;;;;6285753;28;20555;-81
2023/01/01 02:48:48;;;;;;;12.03;5.90;;;;;;;;;;6285916;28;20274;-80
2023/01/01 02:52:01;;;;;;;14.80;5.40;;;;;;;;;;6268238;28;20267;-80
2023/01/01 02:55:14;;;;;;;8.27;5.20;;;;;;;;;;6286027;28;20294;-81
2023/01/01 03:01:51;;;;;;;10.97;4.77;;;;;;;;;;6286283;28;20262;-81
2023/01/01 03:05:04;;;;;;;19.37;4.83;;;;;;;;;;6285790;28;20584;-81
2023/01/01 03:08:15;;;;;;;9.00;4.03;;;;;;;;;;6286146;28;20290;-81
2023/01/01 03:11:21;;;;;;;14.17;4.30;;;;;;;;;;6284709;28;20442;-80
2023/01/01 03:14:38;;;;;;;5.23;3.90;;;;;;;;;;6285198;28;20597;-81
2023/01/01 03:17:49;;;;;;;9.43;4.07;;;;;;;;;;6285484;28;20571;-81
2023/01/01 03:20:56;;;;;;;10.00;4.23;;;;;;;;;;6285526;28;20271;-80
2023/01/01 03:24:02;;;;;;;9.90;4.80;;;;;;;;;;6268053;28;20420;-81
2023/01/01 03:27:09;;;;;;;7.93;4.80;;;;;;;;;;6285539;28;20273;-80
2023/01/01 03:30:15;;;;;;;8.37;4.63;;;;;;;;;;6284919;28;20363;-81
2023/01/01 03:33:27;;;;;;;8.53;4.30;;;;;;;;;;6284909;28;20593;-81
2023/01/01 03:36:34;;;;;;;14.13;4.80;;;;;;;;;;6285484;28;20270;-81
2023/01/01 03:39:43;;;;;;;9.40;4.57;;;;;;;;;;6285190;28;20265;-82
2023/01/01 03:42:51;;;;;;;7.23;4.27;;;;;;;;;;6285579;28;20271;-81
2023/01/01 03:45:58;;;;;;;9.67;4.07;;;;;;;;;;6285234;28;20267;-81
2023/01/01 03:49:06;;;;;;;9.67;4.00;;;;;;;;;;6285318;28;20276;-81
2023/01/01 03:52:23;;;;;;;11.07;4.07;;;;;;;;;;6284969;28;20273;-80
2023/01/01 03:55:31;;;;;;;4.97;3.43;;;;;;;;;;6284761;28;20285;-81
2023/01/01 03:58:39;;;;;;;8.70;3.87;;;;;;;;;;6285283;28;20552;-81
2023/01/01 04:01:46;;;;;;;8.50;3.20;;;;;;;;;;6284635;28;20267;-80
2023/01/01 04:04:53;;;;;;;5.57;3.43;;;;;;;;;;6285175;28;20295;-81
2023/01/01 04:08:02;;;;;;;3.70;2.93;;;;;;;;;;6284566;28;20268;-82
2023/01/01 04:14:30;;;;;;;10.57;3.73;;;;;;;;;;6287848;28;20294;-81
2023/01/01 04:17:35;;;;;;;7.07;3.00;;;;;;;;;;6285541;28;20273;-81
2023/01/01 04:20:41;;;;;;;8.67;2.73;;;;;;;;;;6284675;28;20404;-80
2023/01/01 04:23:47;;;;;;;9.30;3.40;;;;;;;;;;6286474;28;20361;-80
2023/01/01 04:26:52;;;;;;;10.17;3.17;;;;;;;;;;6289131;28;20270;-80
2023/01/01 04:29:57;;;;;;;8.43;2.87;;;;;;;;;;6289332;28;20271;-81
2023/01/01 04:33:03;;;;;;;12.07;3.10;;;;;;;;;;6289767;28;20271;-81
2023/01/01 04:36:11;;;;;;;7.07;3.17;;;;;;;;;;6288890;28;20444;-80
2023/01/01 04:39:16;;;;;;;3.87;2.90;;;;;;;;;;6288929;28;20267;-80
2023/01/01 04:42:21;;;;;;;7.23;3.30;;;;;;;;;;6289031;28;20261;-80
2023/01/01 04:45:26;;;;;;;11.13;3.07;;;;;;;;;;6288525;28;20393;-81
2023/01/01 04:48:32;;;;;;;5.23;2.53;;;;;;;;;;6288128;28;20271;-80
2023/01/01 04:51:39;;;;;;;7.47;3.10;;;;;;;;;;6288556;28;20267;-81
2023/01/01 04:54:44;;;;;;;2.90;2.70;;;;;;;;;;6288581;28;20452;-81
2023/01/01 04:57:49;;;;;;;7.60;3.33;;;;;;;;;;6288844;28;20588;-81
2023/01/01 05:00:54;;;;;;;9.40;3.27;;;;;;;;;;6288964;28;20267;-81
2023/01/01 05:04:00;;;;;;;5.30;2.90;;;;;;;;;;6288344;28;20297;-81
2023/01/01 05:07:07;;;;;;;10.47;2.70;;;;;;;;;;6288310;28;20270;-80
2023/01/01 05:10:13;;;;;;;3.57;2.77;;;;;;;;;;6288335;28;20270;-81
2023/01/01 05:13:19;;;;;;;6.97;2.70;;;;;;;;;;6288404;28;20264;-81
2023/01/01 05:16:25;;;;;;;7.70;2.93;;;;;;;;;;6288213;28;20276;-81
2023/01/01 05:19:30;;;;;;;5.30;2.60;;;;;;;;;;6287777;28;20550;-81
2023/01/01 05:22:37;;;;;;;4.27;2.73;;;;;;;;;;6288189;28;20270;-81
2023/01/01 05:25:42;;;;;;;5.63;2.80;;;;;;;;;;6287745;28;20294;-81
2023/01/01 05:28:49;;;;;;;6.70;3.00;;;;;;;;;;6288152;28;20591;-81
2023/01/01 05:31:54;;;;;;;6.37;2.77;;;;;;;;;;6287686;28;20271;-80
2023/01/01 05:35:00;;;;;;;10.17;3.00;;;;;;;;;;6287767;28;20294;-81
2023/01/01 05:38:07;;;;;;;5.80;2.53;;;;;;;;;;6288369;28;20267;-80
2023/01/01 05:41:14;;;;;;;6.63;2.90;;;;;;;;;;6287468;28;20271;-81
2023/01/01 05:44:19;;;;;;;5.67;2.90;;;;;;;;;;6287662;28;20278;-81
2023/01/01 05:47:25;;;;;;;5.47;3.17;;;;;;;;;;6289878;28;20259;-79
2023/01/01 05:50:33;;;;;;;7.67;3.40;;;;;;;;;;6299485;28;20242;-79
2023/01/01 05:53:40;;;;;;;4.73;2.87;;;;;;;;;;6299146;28;20262;-80
2023/01/01 05:56:45;;;;;;;11.13;3.17;;;;;;;;;;6295332;28;20289;-80
2023/01/01 05:59:51;;;;;;;7.80;2.97;;;;;;;;;;6286563;28;20269;-81
2023/01/01 06:02:56;;;;;;;7.63;3.03;;;;;;;;;;6286713;28;20520;-81
2023/01/01 06:06:04;;;;;;;6.73;3.10;;;;;;;;;;6286934;28;20326;-81
2023/01/01 06:09:12;;;;;;;2.90;2.50;;;;;;;;;;6286924;28;20273;-81
2023/01/01 06:12:18;;;;;;;3.20;2.97;;;;;;;;;;6286811;28;20275;-81
2023/01/01 06:15:23;;;;;;;3.87;2.67;;;;;;;;;;6289627;28;20287;-80
2023/01/01 06:18:31;;;;;;;4.37;2.80;;;;;;;;;;6300799;28;20238;-80
2023/01/01 06:21:36;;;;;;;4.50;2.50;;;;;;;;;;6295515;28;20451;-80
2023/01/01 06:24:42;;;;;;;3.57;3.27;;;;;;;;;;6286497;28;20566;-80
2023/01/01 06:27:48;;;;;;;5.53;2.57;;;;;;;;;;6286345;28;20271;-81
2023/01/01 06:30:53;;;;;;;3.63;2.60;;;;;;;;;;6286839;28;20267;-80
2023/01/01 06:33:58;;;;;;;5.67;2.90;;;;;;;;;;6286776;28;20268;-81
2023/01/01 06:37:03;;;;;;;6.33;3.20;;;;;;;;;;6285985;28;20285;-80
2023/01/01 06:40:13;;;;;;;3.83;2.97;;;;;;;;;;6286017;28;20274;-81
2023/01/01 06:43:18;;;;;;;4.50;3.13;;;;;;;;;;6286063;28;20279;-81
2023/01/01 06:46:25;;;;;;;4.13;2.70;;;;;;;;;;6285362;28;20271;-81
2023/01/01 06:49:30;;;;;;;3.37;2.60;;;;;;;;;;6285671;28;20275;-81
2023/01/01 06:52:35;;;;;;;3.23;2.60;;;;;;;;;;6285150;28;20263;-80
2023/01/01 06:55:48;;;;;;;7.13;2.83;;;;;;;;;;6285651;28;20297;-81
2023/01/01 06:58:59;;;;;;;3.83;2.60;;;;;;;;;;6285261;28;20278;-81
2023/01/01 07:02:04;;;;;;;2.87;2.50;;;;;;;;;;6285529;28;20271;-81
2023/01/01 07:05:10;;;;;;;3.83;2.33;;;;;;;;;;6285546;28;20293;-81
2023/01/01 07:08:15;;;;;;;6.53;2.70;;;;;;;;;;6285536;28;20263;-81
2023/01/01 07:11:22;;;;;;;5.73;2.80;;;;;;;;;;6285088;28;20267;-80
2023/01/01 07:14:27;;;;;;;4.10;3.07;;;;;;;;;;6285232;28;20281;-81
2023/01/01 07:17:32;;;;;;;5.30;2.80;;;;;;;;;;6267409;28;20586;-81
2023/01/01 07:20:38;;;;;;;7.03;3.00;;;;;;;;;;6285398;28;20264;-80
2023/01/01 07:23:43;;;;;;;4.87;2.70;;;;;;;;;;6285486;28;20456;-80
2023/01/01 07:26:49;;;;;;;3.13;2.83;;;;;;;;;;6285438;28;20270;-81
2023/01/01 07:29:54;;;;;;;8.30;3.23;;;;;;;;;;6267505;28;20267;-80
2023/01/01 07:33:00;;;;;;;4.87;2.93;;;;;;;;;;6285357;28;20269;-81
2023/01/01 07:36:06;;;;;;;5.57;2.67;;;;;;;;;;6284866;28;20293;-81
2023/01/01 07:39:13;;;;;;;7.43;2.80;;;;;;;;;;6285382;28;20268;-81
2023/01/01 07:42:20;;;;;;;6.27;2.90;;;;;;;;;;6285452;28;20266;-81
2023/01/01 07:45:25;;;;;;;4.20;3.10;;;;;;;;;;6284486;28;20271;-81
2023/01/01 07:48:31;;;;;;;3.87;2.70;;;;;;;;;;6284779;28;20288;-81
2023/01/01 07:51:43;;;;;;;5.07;2.67;;;;;;;;;;6285301;28;20276;-81
2023/01/01 07:54:49;;;;;;;5.97;2.73;;;;;;;;;;6285211;28;20269;-81
2023/01/01 07:57:55;;;;;;;3.20;3.00;;;;;;;;;;6286571;28;20291;-81
2023/01/01 08:01:00;;;;;;;6.87;2.60;;;;;;;;;;6289777;28;20401;-81
2023/01/01 08:04:06;;;;;;;3.63;2.77;;;;;;;;;;6290336;28;20309;-80
2023/01/01 08:07:12;;;;;;;9.47;3.00;;;;;;;;;;6289871;28;20564;-81
2023/01/01 08:10:18;;;;;;;4.53;3.00;;;;;;;;;;6289801;28;20263;-81
2023/01/01 08:13:25;;;;;;;3.73;2.83;;;;;;;;;;6288342;28;20261;-81
2023/01/01 08:16:30;;;;;;;7.07;3.00;;;;;;;;;;6289055;28;20290;-81
2023/01/01 08:19:36;;;;;;;3.33;3.03;;;;;;;;;;6289186;28;20263;-80
2023/01/01 08:22:41;;;;;;;6.53;2.87;;;;;;;;;;6289572;28;20272;-80
2023/01/01 08:25:46;;;;;;;6.80;2.93;;;;;;;;;;6289688;28;20275;-85
2023/01/01 08:28:53;;;;;;;2.97;2.77;;;;;;;;;;6289146;28;20267;-81
2023/01/01 08:32:01;;;;;;;5.80;3.07;;;;;;;;;;6271035;28;20268;-81
2023/01/01 08:35:07;;;;;;;6.03;3.10;;;;;;;;;;6288703;28;20263;-81
2023/01/01 08:38:12;;;;;;;5.17;2.83;;;;;;;;;;6288261;28;20291;-80
2023/01/01 08:41:17;;;;;;;3.67;2.63;;;;;;;;;;6288923;28;20268;-81
2023/01/01 08:44:24;;;;;;;9.07;3.10;;;;;;;;;;6288519;28;20543;-80
2023/01/01 08:47:29;;;;;;;5.63;2.83;;;;;;;;;;6270915;28;20411;-80
2023/01/01 08:50:34;;;;;;;6.00;2.70;;;;;;;;;;6288237;28;20270;-80
2023/01/01 08:53:39;;;;;;;3.57;2.80;;;;;;;;;;6289049;28;20353;-80
2023/01/01 08:56:52;;;;;;;6.40;2.40;;;;;;;;;;6287998;28;20303;-80
2023/01/01 08:59:59;;;;;;;4.43;2.80;;;;;;;;;;6288155;28;20454;-81
2023/01/01 09:03:04;;;;;;;6.57;3.10;;;;;;;;;;6270868;28;20277;-80
2023/01/01 09:06:09;;;;;;;4.47;3.13;;;;;;;;;;6238657;28;20308;-81
2023/01/01 09:09:15;;;;;;;4.90;2.90;;;;;;;;;;6238499;28;20552;-81
2023/01/01 09:12:23;;;;;;;4.13;2.70;;;;;;;;;;6238969;28;20280;-81
2023/01/01 09:15:30;;;;;;;4.73;3.00;;;;;;;;;;6238848;28;20441;-81
2023/01/01 09:18:35;;;;;;;5.60;2.90;;;;;;;;;;6239033;28;20296;-80
2023/01/01 09:21:40;;;;;;;3.37;2.60;;;;;;;;;;6238738;28;20268;-81
2023/01/01 09:24:45;;;;;;;4.17;2.90;;;;;;;;;;6239491;28;20275;-81
2023/01/01 09:27:56;;;;;;;3.30;2.93;;;;;;;;;;6239038;28;20281;-81
2023/01/01 09:31:05;;;;;;;4.27;2.90;;;;;;;;;;6238732;28;20265;-80
2023/01/01 09:34:11;;;;;;;5.20;2.77;;;;;;;;;;6238228;28;20268;-81
2023/01/01 09:37:16;;;;;;;5.57;2.60;;;;;;;;;;6238247;28;20441;-80
2023/01/01 09:40:29;;;;;;;7.53;2.47;;;;;;;;;;6237782;28;20332;-81
2023/01/01 09:43:37;;;;;;;3.67;3.07;;;;;;;;;;6237950;28;20275;-80
2023/01/01 09:46:44;;;;;;;5.57;2.67;;;;;;;;;;6238191;28;20276;-79
2023/01/01 09:49:50;;;;;;;4.70;2.67;;;;;;;;;;6237700;28;20567;-81
2023/01/01 09:52:58;;;;;;;7.30;3.00;;;;;;;;;;6238414;28;20257;-80
2023/01/01 09:56:04;;;;;;;3.60;2.60;;;;;;;;;;6238401;28;20269;-80
2023/01/01 09:59:10;;;;;;;2.60;2.40;;;;;;;;;;6237446;28;20561;-81
2023/01/01 10:02:38;;;;;;;3.90;3.40;;;;;;;;;;6237555;28;20265;-81
2023/01/01 10:05:49;;;;;;;4.83;3.30;;;;;;;;;;6279112;28;20299;-81
2023/01/01 10:09:06;;;;;;;6.07;3.07;;;;;;;;;;6268747;28;20272;-81
2023/01/01 10:12:19;;;;;;;4.60;3.80;;;;;;;;;;6286542;28;20259;-81
2023/01/01 10:15:27;;;;;;;6.97;4.40;;;;;;;;;;6286149;28;20283;-82
2023/01/01 10:18:37;;;;;;;6.00;4.57;;;;;;;;;;6286705;28;20359;-81
2023/01/01 10:21:43;;;;;;;37.87;14.00;;;;;;;;;;6285668;28;20272;-81
2023/01/01 10:24:56;;;;;;;15.87;7.63;;;;;;;;;;6269119;28;20269;-81
2023/01/01 10:28:04;;;;;;;12.97;6.10;;;;;;;;;;6286209;28;20422;-81
2023/01/01 10:31:16;;;;;;;12.80;7.30;;;;;;;;;;6286674;28;20271;-81
2023/01/01 10:34:24;;;;;;;25.17;11.10;;;;;;;;;;6268823;28;20271;-81
2023/01/01 10:37:34;;;;;;;20.13;9.03;;;;;;;;;;6285700;28;20288;-81
2023/01/01 10:40:40;;;;;;;12.17;7.00;;;;;;;;;;6285896;28;20269;-81
2023/01/01 10:43:46;;;;;;;4.87;4.17;;;;;;;;;;6285931;28;20269;-81
2023/01/01 10:46:56;;;;;;;7.40;4.60;;;;;;;;;;6285723;28;20267;-80
2023/01/01 10:50:07;;;;;;;7.17;3.10;;;;;;;;;;6286238;28;20267;-82
2023/01/01 10:53:21;;;;;;;5.97;3.40;;;;;;;;;;6286135;28;20276;-81
2023/01/01 10:56:28;;;;;;;6.33;2.50;;;;;;;;;;6285331;28;20279;-80
2023/01/01 10:59:35;;;;;;;3.23;2.70;;;;;;;;;;6286244;28;20285;-81
2023/01/01 11:02:41;;;;;;;5.83;3.30;;;;;;;;;;6286248;28;20273;-80
2023/01/01 11:06:20;;;;;;;4.13;3.27;;;;;;;;;;6285388;28;20474;-81
2023/01/01 11:09:27;;;;;;;3.43;2.67;;;;;;;;;;6190060;28;20292;-80
2023/01/01 11:12:36;;;;;;;3.63;3.00;;;;;;;;;;6269509;28;20259;-82
2023/01/01 11:16:01;;;;;;;4.17;2.67;;;;;;;;;;6269290;28;20274;-81
2023/01/01 11:19:08;;;;;;;2.57;2.43;;;;;;;;;;6285987;28;20291;-81
2023/01/01 11:22:37;;;;;;;3.83;2.63;;;;;;;;;;6285225;28;20268;-82
2023/01/01 11:25:58;;;;;;;4.83;3.10;;;;;;;;;;6285415;28;20283;-82
2023/01/01 11:29:05;;;;;;;10.23;2.90;;;;;;;;;;6285040;28;20271;-81
2023/01/01 11:32:19;;;;;;;3.40;3.30;;;;;;;;;;6287147;28;20564;-81
2023/01/01 11:35:25;;;;;;;5.10;2.97;;;;;;;;;;6290807;28;20267;-81
2023/01/01 11:38:32;;;;;;;3.50;3.20;;;;;;;;;;6290706;28;20290;-82
2023/01/01 11:41:44;;;;;;;3.67;3.37;;;;;;;;;;6291003;28;20268;-85
2023/01/01 11:44:51;;;;;;;3.67;3.00;;;;;;;;;;6300243;28;20252;-78
2023/01/01 11:47:58;;;;;;;16.27;12.07;;;;;;;;;;6298923;28;20234;-82
2023/01/01 11:51:05;;;;;;;4.40;4.10;;;;;;;;;;6277198;28;20260;-81
2023/01/01 11:54:26;;;;;;;4.87;2.87;;;;;;;;;;6277952;28;20458;-79
2023/01/01 11:57:31;;;;;;;6.53;3.57;;;;;;;;;;6280134;28;20233;-78
2023/01/01 12:00:37;;;;;;;2.30;2.20;;;;;;;;;;6271167;28;20289;-81
2023/01/01 12:03:45;;;;;;;4.57;2.80;;;;;;;;;;6268147;28;20300;-82
2023/01/01 12:06:54;;;;;;;3.47;3.20;;;;;;;;;;6266025;28;20268;-82
2023/01/01 12:10:05;;;;;;;2.80;2.53;;;;;;;;;;6265611;28;20532;-82
2023/01/01 12:13:15;;;;;;;2.53;2.40;;;;;;;;;;6265134;28;20268;-83
2023/01/01 12:16:24;;;;;;;5.13;2.90;;;;;;;;;;6265246;28;20264;-82
2023/01/01 12:19:33;;;;;;;3.33;2.80;;;;;;;;;;6265398;28;20290;-81
2023/01/01 12:22:38;;;;;;;2.73;2.53;;;;;;;;;;6264823;28;20272;-82
2023/01/01 12:25:46;;;;;;;2.90;2.70;;;;;;;;;;6265275;28;20290;-83
2023/01/01 12:29:27;;;;;;;4.40;2.80;;;;;;;;;;6265004;28;20276;-81
2023/01/01 12:32:45;;;;;;;2.67;2.53;;;;;;;;;;6266152;28;20278;-82
2023/01/01 12:36:08;;;;;;;6.63;2.57;;;;;;;;;;6264742;28;20276;-81
2023/01/01 12:39:50;;;;;;;4.43;2.70;;;;;;;;;;6264846;28;20284;-82
2023/01/01 12:43:02;;;;;;;5.50;2.97;;;;;;;;;;6264188;28;20280;-82
2023/01/01 12:46:31;;;;;;;2.80;2.60;;;;;;;;;;6265004;28;20433;-81
2023/01/01 12:50:00;;;;;;;2.87;2.67;;;;;;;;;;6275466;28;20276;-82
2023/01/01 12:53:13;;;;;;;2.97;2.53;;;;;;;;;;6277690;28;20226;-81
2023/01/01 12:56:22;;;;;;;2.33;2.17;;;;;;;;;;6264970;28;20263;-81
2023/01/01 12:59:32;;;;;;;3.53;2.60;;;;;;;;;;6263154;28;20602;-81
2023/01/01 13:02:38;;;;;;;3.57;2.33;;;;;;;;;;6263407;28;20268;-80
2023/01/01 13:05:46;;;;;;;2.33;2.20;;;;;;;;;;6262957;28;20292;-80
2023/01/01 13:08:54;;;;;;;2.20;2.00;;;;;;;;;;6263535;28;20275;-80
2023/01/01 13:12:01;;;;;;;2.67;2.47;;;;;;;;;;6270996;28;20267;-81
2023/01/01 13:15:41;;;;;;;3.07;2.20;;;;;;;;;;6287851;28;20381;-81
2023/01/01 13:18:50;;;;;;;2.90;2.73;;;;;;;;;;6287924;28;20292;-82
2023/01/01 13:21:58;;;;;;;2.10;1.93;;;;;;;;;;6288116;28;20443;-81
2023/01/01 13:25:04;;;;;;;3.33;2.33;;;;;;;;;;6288367;28;20292;-81
2023/01/01 13:28:14;;;;;;;4.50;2.00;;;;;;;;;;6288162;28;20268;-80
2023/01/01 13:31:19;;;;;;;2.50;2.40;;;;;;;;;;6287517;28;20278;-81
2023/01/01 13:34:42;;;;;;;2.80;2.60;;;;;;;;;;6287484;28;20270;-80
2023/01/01 13:37:48;;;;;;;4.93;2.70;;;;;;;;;;6287138;28;20292;-81
2023/01/01 13:40:53;;;;;;;2.93;2.73;;;;;;;;;;6287754;28;20290;-82
2023/01/01 13:44:22;;;;;;;3.63;2.80;;;;;;;;;;6287609;28;20267;-81
2023/01/01 13:47:33;;;;;;;3.80;2.43;;;;;;;;;;6286927;28;20271;-81
2023/01/01 13:50:47;;;;;;;2.43;2.33;;;;;;;;;;6287385;28;20272;-82
2023/01/01 13:54:02;;;;;;;3.57;2.03;;;;;;;;;;6286789;28;20268;-81
2023/01/01 13:57:20;;;;;;;3.63;2.50;;;;;;;;;;6285537;28;20272;-81
2023/01/01 14:00:27;;;;;;;2.17;2.00;;;;;;;;;;6286861;28;20291;-80
2023/01/01 14:03:38;;;;;;;1.57;1.57;;;;;;;;;;6286359;28;20301;-80
2023/01/01 14:06:49;;;;;;;2.60;2.03;;;;;;;;;;6269009;28;20430;-81
2023/01/01 14:10:19;;;;;;;4.30;2.67;;;;;;;;;;6286972;28;20514;-81
2023/01/01 14:13:28;;;;;;;2.57;2.37;;;;;;;;;;6286104;28;20555;-80
2023/01/01 14:16:35;;;;;;;1.97;1.90;;;;;;;;;;6286845;28;20287;-81
2023/01/01 14:19:41;;;;;;;3.30;3.20;;;;;;;;;;6268238;28;20284;-81
2023/01/01 14:22:48;;;;;;;2.80;2.70;;;;;;;;;;6286158;28;20277;-81
2023/01/01 14:25:53;;;;;;;2.53;2.17;;;;;;;;;;6286276;28;20264;-80
2023/01/01 14:29:00;;;;;;;2.30;2.20;;;;;;;;;;6286077;28;20458;-80
2023/01/01 14:32:14;;;;;;;2.33;2.10;;;;;;;;;;6286237;28;20275;-80
2023/01/01 14:35:19;;;;;;;5.03;1.90;;;;;;;;;;6286024;28;20268;-80
2023/01/01 14:38:27;;;;;;;4.83;1.80;;;;;;;;;;6286463;28;20264;-81
2023/01/01 14:41:33;;;;;;;1.67;1.60;;;;;;;;;;6286320;28;20294;-81
2023/01/01 14:44:40;;;;;;;2.20;2.10;;;;;;;;;;6286026;28;20269;-81
2023/01/01 14:47:49;;;;;;;1.87;1.77;;;;;;;;;;6285618;28;20267;-80
2023/01/01 14:50:54;;;;;;;3.07;2.23;;;;;;;;;;6285362;28;20271;-81
2023/01/01 14:54:03;;;;;;;4.87;3.20;;;;;;;;;;6285299;28;20403;-80
2023/01/01 14:57:11;;;;;;;4.40;2.70;;;;;;;;;;6285616;28;20279;-80
2023/01/01 15:00:23;;;;;;;2.50;2.40;;;;;;;;;;6285294;28;20307;-81
2023/01/01 15:03:28;;;;;;;1.83;1.80;;;;;;;;;;6285171;28;20570;-80
2023/01/01 15:06:40;;;;;;;2.07;1.97;;;;;;;;;;6285152;28;20270;-80
2023/01/01 15:09:46;;;;;;;2.80;1.50;;;;;;;;;;6285139;28;20364;-80
2023/01/01 15:12:51;;;;;;;1.63;1.53;;;;;;;;;;6285699;28;20305;-80
2023/01/01 15:16:15;;;;;;;3.37;3.07;;;;;;;;;;6285641;28;20267;-80
2023/01/01 15:19:24;;;;;;;2.10;2.00;;;;;;;;;;6285169;28;20431;-81
2023/01/01 15:22:31;;;;;;;1.80;1.70;;;;;;;;;;6285562;28;20288;-81
2023/01/01 15:25:38;;;;;;;1.80;1.70;;;;;;;;;;6285578;28;20263;-81
2023/01/01 15:28:44;;;;;;;2.00;2.00;;;;;;;;;;6285755;28;20269;-80
2023/01/01 15:31:53;;;;;;;1.63;1.53;;;;;;;;;;6285585;28;20272;-81
2023/01/01 15:35:00;;;;;;;1.80;1.50;;;;;;;;;;6284720;28;20541;-81
2023/01/01 15:38:11;;;;;;;5.97;2.17;;;;;;;;;;6285473;28;20267;-80
2023/01/01 15:41:41;;;;;;;1.90;1.80;;;;;;;;;;6285539;28;20288;-81
2023/01/01 15:44:46;;;;;;;1.93;1.83;;;;;;;;;;6285745;28;20563;-80
2023/01/01 15:47:52;;;;;;;2.73;2.10;;;;;;;;;;6285329;28;20263;-81
2023/01/01 15:51:11;;;;;;;2.30;2.10;;;;;;;;;;6285611;28;20451;-80
2023/01/01 15:54:18;;;;;;;3.57;2.57;;;;;;;;;;6285494;28;20273;-81
2023/01/01 15:57:25;;;;;;;2.20;2.10;;;;;;;;;;6285023;28;20410;-81
2023/01/01 16:00:32;;;;;;;2.00;1.83;;;;;;;;;;6285595;28;20581;-81
2023/01/01 16:03:39;;;;;;;2.67;2.47;;;;;;;;;;6285144;28;20301;-81
2023/01/01 16:06:44;;;;;;;1.80;1.70;;;;;;;;;;6285184;28;20271;-81
2023/01/01 16:09:50;;;;;;;2.93;2.00;;;;;;;;;;6285903;28;20555;-80
2023/01/01 16:13:03;;;;;;;2.07;1.97;;;;;;;;;;6267148;28;20268;-80
2023/01/01 16:16:26;;;;;;;2.10;1.87;;;;;;;;;;6285172;28;20276;-80
2023/01/01 16:19:32;;;;;;;1.70;1.70;;;;;;;;;;6287170;28;20450;-79
2023/01/01 16:22:37;;;;;;;3.70;1.80;;;;;;;;;;6289758;28;20306;-81
2023/01/01 16:25:42;;;;;;;2.20;2.10;;;;;;;;;;6289731;28;20259;-80
2023/01/01 16:28:49;;;;;;;1.97;1.83;;;;;;;;;;6289686;28;20287;-81
2023/01/01 16:31:54;;;;;;;2.83;2.07;;;;;;;;;;6289606;28;20292;-81
2023/01/01 16:35:00;;;;;;;2.30;2.10;;;;;;;;;;6290149;28;20538;-81
2023/01/01 16:38:13;;;;;;;2.23;2.13;;;;;;;;;;6289317;28;20270;-80
2023/01/01 16:41:19;;;;;;;4.47;2.00;;;;;;;;;;6288522;28;20583;-81
2023/01/01 16:44:26;;;;;;;2.20;2.10;;;;;;;;;;6288989;28;20267;-80
2023/01/01 16:47:31;;;;;;;2.57;2.40;;;;;;;;;;6288923;28;20303;-81
2023/01/01 16:50:36;;;;;;;4.10;2.17;;;;;;;;;;6288762;28;20290;-80
2023/01/01 16:53:41;;;;;;;4.17;2.27;;;;;;;;;;6271212;28;20270;-81
2023/01/01 16:56:46;;;;;;;2.83;2.73;;;;;;;;;;6288597;28;20274;-80
2023/01/01 16:59:53;;;;;;;2.17;2.07;;;;;;;;;;6288755;28;20268;-79
2023/01/01 17:02:58;;;;;;;3.50;2.53;;;;;;;;;;6288513;28;20302;-82
2023/01/01 17:06:07;;;;;;;3.13;2.93;;;;;;;;;;6288612;28;20294;-82
2023/01/01 17:09:12;;;;;;;3.07;2.73;;;;;;;;;;6288824;28;20543;-80
2023/01/01 17:12:17;;;;;;;5.27;2.60;;;;;;;;;;6288136;28;20463;-81
2023/01/01 17:15:24;;;;;;;2.57;2.37;;;;;;;;;;6288819;28;20263;-81
2023/01/01 17:18:29;;;;;;;2.70;2.50;;;;;;;;;;6288112;28;20270;-81
2023/01/01 17:21:54;;;;;;;2.70;2.60;;;;;;;;;;6288473;28;20350;-81
2023/01/01 17:25:00;;;;;;;2.50;2.47;;;;;;;;;;6287956;28;20275;-81
2023/01/01 17:28:05;;;;;;;5.53;3.27;;;;;;;;;;6287826;28;20263;-83
2023/01/01 17:31:14;;;;;;;11.47;3.77;;;;;;;;;;6286747;28;20457;-81
2023/01/01 17:34:19;;;;;;;4.23;3.10;;;;;;;;;;6287789;28;20270;-80
2023/01/01 17:37:24;;;;;;;3.90;3.57;;;;;;;;;;6288009;28;20554;-82
2023/01/01 17:40:29;;;;;;;3.30;3.00;;;;;;;;;;6288163;28;20265;-80
2023/01/01 17:43:43;;;;;;;5.30;2.80;;;;;;;;;;6287368;28;20291;-82
2023/01/01 17:46:49;;;;;;;3.87;3.10;;;;;;;;;;6288405;28;20550;-82
2023/01/01 17:49:58;;;;;;;3.50;3.20;;;;;;;;;;6288456;28;20271;-82
2023/01/01 17:53:04;;;;;;;3.23;2.83;;;;;;;;;;6289435;28;20271;-82
2023/01/01 17:56:19;;;;;;;3.60;2.90;;;;;;;;;;6290841;28;20336;-81
2023/01/01 17:59:24;;;;;;;3.17;2.90;;;;;;;;;;6277150;28;20271;-81
2023/01/01 18:02:32;;;;;;;7.20;2.90;;;;;;;;;;6289150;28;20302;-82
2023/01/01 18:05:37;;;;;;;2.97;2.87;;;;;;;;;;6286861;28;20299;-81
2023/01/01 18:08:42;;;;;;;4.10;2.87;;;;;;;;;;6287069;28;20585;-81
2023/01/01 18:11:48;;;;;;;3.50;3.07;;;;;;;;;;6285853;28;20270;-81
2023/01/01 18:14:53;;;;;;;2.63;2.53;;;;;;;;;;6286995;28;20267;-81
2023/01/01 18:17:59;;;;;;;5.33;3.50;;;;;;;;;;6286514;28;20271;-81
2023/01/01 18:21:08;;;;;;;3.63;2.80;;;;;;;;;;6269141;28;20269;-81
2023/01/01 18:24:14;;;;;;;2.90;2.70;;;;;;;;;;6268823;28;20286;-81
2023/01/01 18:27:19;;;;;;;3.23;3.03;;;;;;;;;;6286818;28;20558;-81
2023/01/01 18:30:24;;;;;;;5.27;2.83;;;;;;;;;;6286710;28;20270;-80
2023/01/01 18:33:32;;;;;;;5.27;3.10;;;;;;;;;;6286561;28;20273;-80
2023/01/01 18:36:38;;;;;;;3.10;3.00;;;;;;;;;;6285628;28;20270;-81
2023/01/01 18:39:43;;;;;;;4.10;3.07;;;;;;;;;;6285797;28;20266;-81
2023/01/01 18:42:53;;;;;;;5.50;3.40;;;;;;;;;;6285527;28;20298;-81
2023/01/01 18:45:58;;;;;;;4.13;3.43;;;;;;;;;;6286280;28;20269;-81
2023/01/01 18:49:10;;;;;;;5.93;3.50;;;;;;;;;;6285997;28;20271;-80
2023/01/01 18:52:22;;;;;;;4.10;3.70;;;;;;;;;;6286513;28;20279;-80
2023/01/01 18:55:27;;;;;;;4.03;3.60;;;;;;;;;;6286830;28;20274;-81